sensor_id;sensor_type;location;lat;lon;timestamp;temperature;humidity
10848;DHT22;5477;48.806;9.154;2022-09-09T00:00:48;15.70;99.90
10848;DHT22;5477;48.806;9.154;2022-09-09T00:03:21;15.70;99.90
10848;DHT22;5477;48.806;9.154;2022-09-09T00:05:57;15.70;99.90
10848;DHT22;5477;48.806;9.154;2022-09-09T00:08:34;15.70;99.90
10848;DHT22;5477;48.806;9.154;2022-09-09T00:11:09;15.80;99.90
10848;DHT22;5477;48.806;9.154;2022-09-09T00:13:46;15.80;99.90
10848;DHT22;5477;48.806;9.154;2022-09-09T00:16:18;15.80;99.90
10848;DHT22;5477;48.806;9.154;2022-09-09T00:18:57;15.80;99.90
10848;DHT22;5477;48.806;9.154;2022-09-09T00:21:33;15.80;99.90
10848;DHT22;5477;48.806;9.154;2022-09-09T00:24:09;15.80;99.90
10848;DHT22;5477;48.806;9.154;2022-09-09T00:26:43;15.80;99.90
10848;DHT22;5477;48.806;9.154;2022-09-09T00:29:21;15.90;99.90
10848;DHT22;5477;48.806;9.154;2022-09-09T00:31:54;15.90;99.90
10848;DHT22;5477;48.806;9.154;2022-09-09T00:34:28;15.90;99.90
10848;DHT22;5477;48.806;9.154;2022-09-09T00:36:56;15.80;99.90
10848;DHT22;5477;48.806;9.154;2022-09-09T00:39:31;15.80;99.90
10848;DHT22;5477;48.806;9.154;2022-09-09T00:42:10;15.80;99.90
10848;DHT22;5477;48.806;9.154;2022-09-09T00:44:51;15.80;99.90
10848;DHT22;5477;48.806;9.154;2022-09-09T00:47:43;15.80;99.90
10848;DHT22;5477;48.806;9.154;2022-09-09T00:50:28;15.80;99.90
10848;DHT22;5477;48.806;9.154;2022-09-09T00:53:08;15.80;99.90
10848;DHT22;5477;48.806;9.154;2022-09-09T00:55:45;15.90;99.90
10848;DHT22;5477;48.806;9.154;2022-09-09T00:58:14;15.90;99.90
10848;DHT22;5477;48.806;9.154;2022-09-09T01:00:45;15.90;99.90
10848;DHT22;5477;48.806;9.154;2022-09-09T01:03:21;16.00;99.90
10848;DHT22;5477;48.806;9.154;2022-09-09T01:06:01;16.00;99.90
10848;DHT22;5477;48.806;9.154;2022-09-09T01:08:46;16.10;99.90
10848;DHT22;5477;48.806;9.154;2022-09-09T01:11:21;16.10;99.90
10848;DHT22;5477;48.806;9.154;2022-09-09T01:13:56;16.10;99.90
10848;DHT22;5477;48.806;9.154;2022-09-09T01:16:30;16.10;99.90
10848;DHT22;5477;48.806;9.154;2022-09-09T01:18:59;16.10;99.90
10848;DHT22;5477;48.806;9.154;2022-09-09T01:21:37;16.10;99.90
10848;DHT22;5477;48.806;9.154;2022-09-09T01:24:21;16.10;99.90
10848;DHT22;5477;48.806;9.154;2022-09-09T01:27:22;16.10;99.90
10848;DHT22;5477;48.806;9.154;2022-09-09T01:29:51;16.10;99.90
10848;DHT22;5477;48.806;9.154;2022-09-09T01:32:40;16.10;99.90
10848;DHT22;5477;48.806;9.154;2022-09-09T01:35:21;16.10;99.90
10848;DHT22;5477;48.806;9.154;2022-09-09T01:37:53;16.10;99.90
10848;DHT22;5477;48.806;9.154;2022-09-09T01:40:21;16.10;99.90
10848;DHT22;5477;48.806;9.154;2022-09-09T01:42:51;16.10;99.90
10848;DHT22;5477;48.806;9.154;2022-09-09T01:45:20;16.10;99.90
10848;DHT22;5477;48.806;9.154;2022-09-09T01:47:49;16.20;99.90
10848;DHT22;5477;48.806;9.154;2022-09-09T01:50:36;16.20;99.90
10848;DHT22;5477;48.806;9.154;2022-09-09T01:53:05;16.20;99.90
10848;DHT22;5477;48.806;9.154;2022-09-09T01:55:38;16.20;99.90
10848;DHT22;5477;48.806;9.154;2022-09-09T01:58:21;16.20;99.90
10848;DHT22;5477;48.806;9.154;2022-09-09T02:01:00;16.20;99.90
10848;DHT22;5477;48.806;9.154;2022-09-09T02:03:32;16.20;99.90
10848;DHT22;5477;48.806;9.154;2022-09-09T02:06:18;16.10;99.90
10848;DHT22;5477;48.806;9.154;2022-09-09T02:08:54;16.10;99.90
10848;DHT22;5477;48.806;9.154;2022-09-09T02:11:26;16.10;99.90
10848;DHT22;5477;48.806;9.154;2022-09-09T02:14:06;16.20;99.90
10848;DHT22;5477;48.806;9.154;2022-09-09T02:16:42;16.10;99.90
10848;DHT22;5477;48.806;9.154;2022-09-09T02:19:16;16.10;99.90
10848;DHT22;5477;48.806;9.154;2022-09-09T02:22:09;16.10;99.90
10848;DHT22;5477;48.806;9.154;2022-09-09T02:24:39;16.30;99.90
10848;DHT22;5477;48.806;9.154;2022-09-09T02:27:16;16.40;99.90
10848;DHT22;5477;48.806;9.154;2022-09-09T02:29:49;16.60;99.90
10848;DHT22;5477;48.806;9.154;2022-09-09T02:32:31;16.60;99.90
10848;DHT22;5477;48.806;9.154;2022-09-09T02:35:05;16.60;99.90
10848;DHT22;5477;48.806;9.154;2022-09-09T02:37:38;16.60;99.90
10848;DHT22;5477;48.806;9.154;2022-09-09T02:40:10;16.70;99.90
10848;DHT22;5477;48.806;9.154;2022-09-09T02:42:42;16.60;99.90
10848;DHT22;5477;48.806;9.154;2022-09-09T02:45:13;16.60;99.90
10848;DHT22;5477;48.806;9.154;2022-09-09T02:47:48;16.40;99.90
10848;DHT22;5477;48.806;9.154;2022-09-09T02:50:26;16.20;99.90
10848;DHT22;5477;48.806;9.154;2022-09-09T02:53:07;16.10;99.90
10848;DHT22;5477;48.806;9.154;2022-09-09T02:55:39;15.90;99.90
10848;DHT22;5477;48.806;9.154;2022-09-09T02:58:14;15.80;99.90
10848;DHT22;5477;48.806;9.154;2022-09-09T03:00:51;15.70;99.90
10848;DHT22;5477;48.806;9.154;2022-09-09T03:03:20;15.60;99.90
10848;DHT22;5477;48.806;9.154;2022-09-09T03:05:50;15.50;99.90
10848;DHT22;5477;48.806;9.154;2022-09-09T03:08:18;15.40;99.90
10848;DHT22;5477;48.806;9.154;2022-09-09T03:10:47;15.30;99.90
10848;DHT22;5477;48.806;9.154;2022-09-09T03:13:16;15.30;99.90
10848;DHT22;5477;48.806;9.154;2022-09-09T03:15:45;15.20;99.90
10848;DHT22;5477;48.806;9.154;2022-09-09T03:18:19;15.10;99.90
10848;DHT22;5477;48.806;9.154;2022-09-09T03:20:50;15.10;99.90
10848;DHT22;5477;48.806;9.154;2022-09-09T03:23:21;15.00;99.90
10848;DHT22;5477;48.806;9.154;2022-09-09T03:25:50;15.00;99.90
10848;DHT22;5477;48.806;9.154;2022-09-09T03:28:25;15.00;99.90
10848;DHT22;5477;48.806;9.154;2022-09-09T03:30:59;15.00;99.90
10848;DHT22;5477;48.806;9.154;2022-09-09T03:33:32;14.90;99.90
10848;DHT22;5477;48.806;9.154;2022-09-09T03:36:01;15.00;99.90
10848;DHT22;5477;48.806;9.154;2022-09-09T03:38:29;15.00;99.90
10848;DHT22;5477;48.806;9.154;2022-09-09T03:40:59;15.00;99.90
10848;DHT22;5477;48.806;9.154;2022-09-09T03:43:29;15.10;99.90
10848;DHT22;5477;48.806;9.154;2022-09-09T03:45:57;15.10;99.90
10848;DHT22;5477;48.806;9.154;2022-09-09T03:48:27;15.10;99.90
10848;DHT22;5477;48.806;9.154;2022-09-09T03:50:57;15.20;99.90
10848;DHT22;5477;48.806;9.154;2022-09-09T03:53:29;15.20;99.90
10848;DHT22;5477;48.806;9.154;2022-09-09T03:55:58;15.20;99.90
10848;DHT22;5477;48.806;9.154;2022-09-09T03:58:29;15.10;99.90
10848;DHT22;5477;48.806;9.154;2022-09-09T04:01:04;15.10;99.90
10848;DHT22;5477;48.806;9.154;2022-09-09T04:03:33;15.10;99.90
10848;DHT22;5477;48.806;9.154;2022-09-09T04:06:04;15.10;99.90
10848;DHT22;5477;48.806;9.154;2022-09-09T04:08:33;15.10;99.90
10848;DHT22;5477;48.806;9.154;2022-09-09T04:11:03;15.10;99.90
10848;DHT22;5477;48.806;9.154;2022-09-09T04:13:35;15.20;99.90
10848;DHT22;5477;48.806;9.154;2022-09-09T04:16:04;15.20;99.90
10848;DHT22;5477;48.806;9.154;2022-09-09T04:18:38;15.20;99.90
10848;DHT22;5477;48.806;9.154;2022-09-09T04:21:09;15.20;99.90
10848;DHT22;5477;48.806;9.154;2022-09-09T04:23:39;15.30;99.90
10848;DHT22;5477;48.806;9.154;2022-09-09T04:26:08;15.40;99.90
10848;DHT22;5477;48.806;9.154;2022-09-09T04:28:37;15.50;99.90
10848;DHT22;5477;48.806;9.154;2022-09-09T04:31:15;15.60;99.90
10848;DHT22;5477;48.806;9.154;2022-09-09T04:33:45;15.60;99.90
10848;DHT22;5477;48.806;9.154;2022-09-09T04:36:14;15.60;99.90
10848;DHT22;5477;48.806;9.154;2022-09-09T04:38:43;15.60;99.90
10848;DHT22;5477;48.806;9.154;2022-09-09T04:41:12;15.60;99.90
10848;DHT22;5477;48.806;9.154;2022-09-09T04:43:42;15.60;99.90
10848;DHT22;5477;48.806;9.154;2022-09-09T04:46:13;15.60;99.90
10848;DHT22;5477;48.806;9.154;2022-09-09T04:48:43;15.60;99.90
10848;DHT22;5477;48.806;9.154;2022-09-09T04:51:14;15.60;99.90
10848;DHT22;5477;48.806;9.154;2022-09-09T04:53:44;15.50;99.90
10848;DHT22;5477;48.806;9.154;2022-09-09T04:56:14;15.50;99.90
10848;DHT22;5477;48.806;9.154;2022-09-09T04:58:49;15.50;99.90
10848;DHT22;5477;48.806;9.154;2022-09-09T05:01:19;15.50;99.90
10848;DHT22;5477;48.806;9.154;2022-09-09T05:03:49;15.50;99.90
10848;DHT22;5477;48.806;9.154;2022-09-09T05:06:22;15.40;99.90
10848;DHT22;5477;48.806;9.154;2022-09-09T05:08:55;15.40;99.90
10848;DHT22;5477;48.806;9.154;2022-09-09T05:11:26;15.40;99.90
10848;DHT22;5477;48.806;9.154;2022-09-09T05:14:00;15.40;99.90
10848;DHT22;5477;48.806;9.154;2022-09-09T05:16:29;15.40;99.90
10848;DHT22;5477;48.806;9.154;2022-09-09T05:18:58;15.40;99.90
10848;DHT22;5477;48.806;9.154;2022-09-09T05:21:37;15.50;99.90
10848;DHT22;5477;48.806;9.154;2022-09-09T05:24:05;15.60;99.90
10848;DHT22;5477;48.806;9.154;2022-09-09T05:26:34;15.60;99.90
10848;DHT22;5477;48.806;9.154;2022-09-09T05:29:02;15.70;99.90
10848;DHT22;5477;48.806;9.154;2022-09-09T05:31:30;15.80;99.90
10848;DHT22;5477;48.806;9.154;2022-09-09T05:34:02;15.80;99.90
10848;DHT22;5477;48.806;9.154;2022-09-09T05:36:30;15.80;99.90
10848;DHT22;5477;48.806;9.154;2022-09-09T05:39:00;15.90;99.90
10848;DHT22;5477;48.806;9.154;2022-09-09T05:41:31;15.90;99.90
10848;DHT22;5477;48.806;9.154;2022-09-09T05:44:01;16.00;99.90
10848;DHT22;5477;48.806;9.154;2022-09-09T05:46:34;16.10;99.90
10848;DHT22;5477;48.806;9.154;2022-09-09T05:49:02;16.10;99.90
10848;DHT22;5477;48.806;9.154;2022-09-09T05:51:33;16.10;99.90
10848;DHT22;5477;48.806;9.154;2022-09-09T05:54:08;16.10;99.90
10848;DHT22;5477;48.806;9.154;2022-09-09T05:56:41;16.20;99.90
10848;DHT22;5477;48.806;9.154;2022-09-09T05:59:09;16.20;99.90
10848;DHT22;5477;48.806;9.154;2022-09-09T06:01:38;16.30;99.90
10848;DHT22;5477;48.806;9.154;2022-09-09T06:04:13;16.30;99.90
10848;DHT22;5477;48.806;9.154;2022-09-09T06:06:41;16.40;99.90
10848;DHT22;5477;48.806;9.154;2022-09-09T06:09:14;16.40;99.90
10848;DHT22;5477;48.806;9.154;2022-09-09T06:11:42;16.50;99.90
10848;DHT22;5477;48.806;9.154;2022-09-09T06:14:12;16.50;99.90
10848;DHT22;5477;48.806;9.154;2022-09-09T06:16:40;16.60;99.90
10848;DHT22;5477;48.806;9.154;2022-09-09T06:19:16;16.60;99.90
10848;DHT22;5477;48.806;9.154;2022-09-09T06:21:45;16.70;99.90
10848;DHT22;5477;48.806;9.154;2022-09-09T06:24:16;16.70;99.90
10848;DHT22;5477;48.806;9.154;2022-09-09T06:26:46;16.80;99.90
10848;DHT22;5477;48.806;9.154;2022-09-09T06:29:24;16.80;99.90
10848;DHT22;5477;48.806;9.154;2022-09-09T06:31:52;16.80;99.90
10848;DHT22;5477;48.806;9.154;2022-09-09T06:34:23;16.80;99.90
10848;DHT22;5477;48.806;9.154;2022-09-09T06:36:54;16.80;99.90
10848;DHT22;5477;48.806;9.154;2022-09-09T06:39:27;16.90;99.90
10848;DHT22;5477;48.806;9.154;2022-09-09T06:41:55;16.90;99.90
10848;DHT22;5477;48.806;9.154;2022-09-09T06:44:50;17.00;99.90
10848;DHT22;5477;48.806;9.154;2022-09-09T06:47:34;17.10;99.90
10848;DHT22;5477;48.806;9.154;2022-09-09T06:50:03;17.10;99.90
10848;DHT22;5477;48.806;9.154;2022-09-09T06:52:34;17.20;99.90
10848;DHT22;5477;48.806;9.154;2022-09-09T06:55:05;17.20;99.90
10848;DHT22;5477;48.806;9.154;2022-09-09T06:57:34;17.30;99.90
10848;DHT22;5477;48.806;9.154;2022-09-09T07:00:18;17.50;99.90
10848;DHT22;5477;48.806;9.154;2022-09-09T07:02:46;17.60;99.90
10848;DHT22;5477;48.806;9.154;2022-09-09T07:05:14;17.60;99.90
10848;DHT22;5477;48.806;9.154;2022-09-09T07:07:45;17.70;99.90
10848;DHT22;5477;48.806;9.154;2022-09-09T07:10:17;17.70;99.90
10848;DHT22;5477;48.806;9.154;2022-09-09T07:12:50;17.60;99.90
10848;DHT22;5477;48.806;9.154;2022-09-09T07:15:20;17.70;99.90
10848;DHT22;5477;48.806;9.154;2022-09-09T07:17:49;17.70;99.90
10848;DHT22;5477;48.806;9.154;2022-09-09T07:20:17;17.80;99.90
10848;DHT22;5477;48.806;9.154;2022-09-09T07:22:46;17.80;99.90
10848;DHT22;5477;48.806;9.154;2022-09-09T07:25:14;17.90;99.90
10848;DHT22;5477;48.806;9.154;2022-09-09T07:27:45;18.00;99.90
10848;DHT22;5477;48.806;9.154;2022-09-09T07:30:14;18.10;99.90
10848;DHT22;5477;48.806;9.154;2022-09-09T07:32:52;18.30;99.90
10848;DHT22;5477;48.806;9.154;2022-09-09T07:35:20;18.40;99.90
10848;DHT22;5477;48.806;9.154;2022-09-09T07:37:48;18.50;99.90
10848;DHT22;5477;48.806;9.154;2022-09-09T07:40:18;18.70;99.90
10848;DHT22;5477;48.806;9.154;2022-09-09T07:42:49;18.80;99.90
10848;DHT22;5477;48.806;9.154;2022-09-09T07:45:17;18.90;99.90
10848;DHT22;5477;48.806;9.154;2022-09-09T07:47:45;19.10;99.90
10848;DHT22;5477;48.806;9.154;2022-09-09T07:50:13;19.30;99.90
10848;DHT22;5477;48.806;9.154;2022-09-09T07:52:42;19.40;99.90
10848;DHT22;5477;48.806;9.154;2022-09-09T07:55:10;19.40;99.90
10848;DHT22;5477;48.806;9.154;2022-09-09T07:57:38;19.40;99.90
10848;DHT22;5477;48.806;9.154;2022-09-09T08:00:09;19.30;99.90
10848;DHT22;5477;48.806;9.154;2022-09-09T08:02:45;19.30;99.90
10848;DHT22;5477;48.806;9.154;2022-09-09T08:05:13;19.30;99.90
10848;DHT22;5477;48.806;9.154;2022-09-09T08:07:41;19.40;99.90
10848;DHT22;5477;48.806;9.154;2022-09-09T08:10:10;19.50;99.90
10848;DHT22;5477;48.806;9.154;2022-09-09T08:12:41;19.60;99.90
10848;DHT22;5477;48.806;9.154;2022-09-09T08:15:31;19.70;99.90
10848;DHT22;5477;48.806;9.154;2022-09-09T08:18:00;19.90;99.90
10848;DHT22;5477;48.806;9.154;2022-09-09T08:20:29;19.90;99.90
10848;DHT22;5477;48.806;9.154;2022-09-09T08:22:57;20.00;99.90
10848;DHT22;5477;48.806;9.154;2022-09-09T08:25:25;20.00;99.90
10848;DHT22;5477;48.806;9.154;2022-09-09T08:27:53;20.10;99.90
10848;DHT22;5477;48.806;9.154;2022-09-09T08:30:22;20.10;99.90
10848;DHT22;5477;48.806;9.154;2022-09-09T08:32:52;20.10;99.90
10848;DHT22;5477;48.806;9.154;2022-09-09T08:35:21;20.20;99.90
10848;DHT22;5477;48.806;9.154;2022-09-09T08:37:53;20.30;99.90
10848;DHT22;5477;48.806;9.154;2022-09-09T08:40:26;20.40;99.90
10848;DHT22;5477;48.806;9.154;2022-09-09T08:42:59;20.50;99.90
10848;DHT22;5477;48.806;9.154;2022-09-09T08:45:33;20.40;99.90
10848;DHT22;5477;48.806;9.154;2022-09-09T08:48:19;20.30;99.90
10848;DHT22;5477;48.806;9.154;2022-09-09T08:50:51;20.40;99.90
10848;DHT22;5477;48.806;9.154;2022-09-09T08:53:28;20.40;99.90
10848;DHT22;5477;48.806;9.154;2022-09-09T08:56:02;20.70;99.90
10848;DHT22;5477;48.806;9.154;2022-09-09T08:58:47;20.90;99.90
10848;DHT22;5477;48.806;9.154;2022-09-09T09:01:39;21.00;99.90
10848;DHT22;5477;48.806;9.154;2022-09-09T09:04:28;21.00;99.90
10848;DHT22;5477;48.806;9.154;2022-09-09T09:07:06;21.20;99.90
10848;DHT22;5477;48.806;9.154;2022-09-09T09:09:43;21.40;99.90
10848;DHT22;5477;48.806;9.154;2022-09-09T09:12:16;21.50;99.90
10848;DHT22;5477;48.806;9.154;2022-09-09T09:14:47;21.80;99.90
10848;DHT22;5477;48.806;9.154;2022-09-09T09:17:18;21.90;99.90
10848;DHT22;5477;48.806;9.154;2022-09-09T09:19:49;21.90;99.90
10848;DHT22;5477;48.806;9.154;2022-09-09T09:22:19;21.60;99.90
10848;DHT22;5477;48.806;9.154;2022-09-09T09:24:54;21.30;99.90
10848;DHT22;5477;48.806;9.154;2022-09-09T09:27:32;21.10;99.90
10848;DHT22;5477;48.806;9.154;2022-09-09T09:30:14;21.00;99.90
10848;DHT22;5477;48.806;9.154;2022-09-09T09:33:08;20.70;99.90
10848;DHT22;5477;48.806;9.154;2022-09-09T09:35:40;20.40;99.90
10848;DHT22;5477;48.806;9.154;2022-09-09T09:38:17;20.00;99.90
10848;DHT22;5477;48.806;9.154;2022-09-09T09:41:06;19.80;99.90
10848;DHT22;5477;48.806;9.154;2022-09-09T09:43:37;19.70;99.90
10848;DHT22;5477;48.806;9.154;2022-09-09T09:46:20;19.60;99.90
10848;DHT22;5477;48.806;9.154;2022-09-09T09:48:56;19.60;99.90
10848;DHT22;5477;48.806;9.154;2022-09-09T09:51:28;19.90;99.90
10848;DHT22;5477;48.806;9.154;2022-09-09T09:54:08;20.40;99.90
10848;DHT22;5477;48.806;9.154;2022-09-09T09:56:38;20.70;99.90
10848;DHT22;5477;48.806;9.154;2022-09-09T09:59:20;21.00;99.90
10848;DHT22;5477;48.806;9.154;2022-09-09T10:02:17;21.40;99.90
10848;DHT22;5477;48.806;9.154;2022-09-09T10:05:00;21.80;99.90
10848;DHT22;5477;48.806;9.154;2022-09-09T10:07:30;22.10;99.90
10848;DHT22;5477;48.806;9.154;2022-09-09T10:10:00;22.60;99.90
10848;DHT22;5477;48.806;9.154;2022-09-09T10:12:37;23.00;99.90
10848;DHT22;5477;48.806;9.154;2022-09-09T10:15:21;22.90;99.90
10848;DHT22;5477;48.806;9.154;2022-09-09T10:17:57;23.10;99.90
10848;DHT22;5477;48.806;9.154;2022-09-09T10:20:34;23.40;99.90
10848;DHT22;5477;48.806;9.154;2022-09-09T10:23:15;23.30;99.90
10848;DHT22;5477;48.806;9.154;2022-09-09T10:26:02;23.40;98.40
10848;DHT22;5477;48.806;9.154;2022-09-09T10:28:48;23.80;98.30
10848;DHT22;5477;48.806;9.154;2022-09-09T10:31:27;24.30;98.40
10848;DHT22;5477;48.806;9.154;2022-09-09T10:34:05;24.30;97.50
10848;DHT22;5477;48.806;9.154;2022-09-09T10:36:45;23.90;97.60
10848;DHT22;5477;48.806;9.154;2022-09-09T10:39:30;23.80;97.90
10848;DHT22;5477;48.806;9.154;2022-09-09T10:42:04;23.90;98.20
10848;DHT22;5477;48.806;9.154;2022-09-09T10:44:45;24.30;97.50
10848;DHT22;5477;48.806;9.154;2022-09-09T10:47:25;23.80;96.70
10848;DHT22;5477;48.806;9.154;2022-09-09T10:50:12;23.60;97.20
10848;DHT22;5477;48.806;9.154;2022-09-09T10:52:52;23.40;97.30
10848;DHT22;5477;48.806;9.154;2022-09-09T10:55:24;23.40;97.60
10848;DHT22;5477;48.806;9.154;2022-09-09T10:57:58;23.50;96.90
10848;DHT22;5477;48.806;9.154;2022-09-09T11:00:35;23.10;97.40
10848;DHT22;5477;48.806;9.154;2022-09-09T11:03:05;23.10;98.30
10848;DHT22;5477;48.806;9.154;2022-09-09T11:05:40;23.60;99.30
10848;DHT22;5477;48.806;9.154;2022-09-09T11:08:12;24.10;98.10
10848;DHT22;5477;48.806;9.154;2022-09-09T11:10:46;24.30;97.70
10848;DHT22;5477;48.806;9.154;2022-09-09T11:13:24;23.30;98.50
10848;DHT22;5477;48.806;9.154;2022-09-09T11:15:58;22.20;99.40
10848;DHT22;5477;48.806;9.154;2022-09-09T11:18:29;21.60;99.90
10848;DHT22;5477;48.806;9.154;2022-09-09T11:21:00;21.30;99.90
10848;DHT22;5477;48.806;9.154;2022-09-09T11:23:37;20.80;99.90
10848;DHT22;5477;48.806;9.154;2022-09-09T11:26:13;20.80;99.90
10848;DHT22;5477;48.806;9.154;2022-09-09T11:28:55;20.60;99.90
10848;DHT22;5477;48.806;9.154;2022-09-09T11:31:45;20.50;99.90
10848;DHT22;5477;48.806;9.154;2022-09-09T11:34:23;20.40;99.90
10848;DHT22;5477;48.806;9.154;2022-09-09T11:37:12;20.10;99.90
10848;DHT22;5477;48.806;9.154;2022-09-09T11:42:48;19.80;99.90
10848;DHT22;5477;48.806;9.154;2022-09-09T11:45:23;19.90;99.90
10848;DHT22;5477;48.806;9.154;2022-09-09T11:47:55;20.00;99.90
10848;DHT22;5477;48.806;9.154;2022-09-09T11:50:32;19.80;99.90
10848;DHT22;5477;48.806;9.154;2022-09-09T11:53:19;19.70;99.90
10848;DHT22;5477;48.806;9.154;2022-09-09T11:56:01;19.50;99.90
10848;DHT22;5477;48.806;9.154;2022-09-09T11:58:39;19.40;99.90
10848;DHT22;5477;48.806;9.154;2022-09-09T12:01:36;19.40;99.90
10848;DHT22;5477;48.806;9.154;2022-09-09T12:04:12;19.60;99.90
10848;DHT22;5477;48.806;9.154;2022-09-09T12:06:50;19.70;99.90
10848;DHT22;5477;48.806;9.154;2022-09-09T12:09:25;20.20;99.90
10848;DHT22;5477;48.806;9.154;2022-09-09T12:12:05;20.60;99.90
10848;DHT22;5477;48.806;9.154;2022-09-09T12:14:38;20.70;99.90
10848;DHT22;5477;48.806;9.154;2022-09-09T12:17:17;21.30;99.90
10848;DHT22;5477;48.806;9.154;2022-09-09T12:19:47;22.00;99.90
10848;DHT22;5477;48.806;9.154;2022-09-09T12:22:26;22.90;99.90
10848;DHT22;5477;48.806;9.154;2022-09-09T12:25:03;23.40;98.70
10848;DHT22;5477;48.806;9.154;2022-09-09T12:27:40;23.80;96.90
10848;DHT22;5477;48.806;9.154;2022-09-09T12:30:14;24.40;95.30
10848;DHT22;5477;48.806;9.154;2022-09-09T12:32:43;24.40;94.30
10848;DHT22;5477;48.806;9.154;2022-09-09T12:35:15;24.60;94.10
10848;DHT22;5477;48.806;9.154;2022-09-09T12:37:48;24.90;92.40
10848;DHT22;5477;48.806;9.154;2022-09-09T12:40:22;25.30;91.80
10848;DHT22;5477;48.806;9.154;2022-09-09T12:42:51;24.80;92.10
10848;DHT22;5477;48.806;9.154;2022-09-09T12:45:23;23.90;92.30
10848;DHT22;5477;48.806;9.154;2022-09-09T12:47:55;23.70;92.60
10848;DHT22;5477;48.806;9.154;2022-09-09T12:50:27;23.60;93.80
10848;DHT22;5477;48.806;9.154;2022-09-09T12:52:58;23.80;93.70
10848;DHT22;5477;48.806;9.154;2022-09-09T12:55:29;23.20;93.80
10848;DHT22;5477;48.806;9.154;2022-09-09T12:57:58;23.00;94.90
10848;DHT22;5477;48.806;9.154;2022-09-09T13:00:28;23.80;94.30
10848;DHT22;5477;48.806;9.154;2022-09-09T13:02:58;24.40;93.40
10848;DHT22;5477;48.806;9.154;2022-09-09T13:05:34;24.70;92.80
10848;DHT22;5477;48.806;9.154;2022-09-09T13:08:03;24.80;92.30
10848;DHT22;5477;48.806;9.154;2022-09-09T13:10:33;25.40;92.40
10848;DHT22;5477;48.806;9.154;2022-09-09T13:13:21;25.80;90.90
10848;DHT22;5477;48.806;9.154;2022-09-09T13:15:53;25.70;91.10
10848;DHT22;5477;48.806;9.154;2022-09-09T13:18:23;25.60;90.80
10848;DHT22;5477;48.806;9.154;2022-09-09T13:20:52;25.40;91.30
10848;DHT22;5477;48.806;9.154;2022-09-09T13:23:21;25.80;90.00
10848;DHT22;5477;48.806;9.154;2022-09-09T13:25:54;25.30;90.10
10848;DHT22;5477;48.806;9.154;2022-09-09T13:28:24;24.80;91.80
10848;DHT22;5477;48.806;9.154;2022-09-09T13:31:00;24.80;91.60
10848;DHT22;5477;48.806;9.154;2022-09-09T13:33:31;25.30;91.20
10848;DHT22;5477;48.806;9.154;2022-09-09T13:36:02;25.80;90.70
10848;DHT22;5477;48.806;9.154;2022-09-09T13:38:33;25.10;90.80
10848;DHT22;5477;48.806;9.154;2022-09-09T13:41:04;25.10;91.50
10848;DHT22;5477;48.806;9.154;2022-09-09T13:43:37;25.00;91.70
10848;DHT22;5477;48.806;9.154;2022-09-09T13:46:28;25.00;91.10
10848;DHT22;5477;48.806;9.154;2022-09-09T13:48:59;25.30;90.80
10848;DHT22;5477;48.806;9.154;2022-09-09T13:51:34;25.30;90.80
10848;DHT22;5477;48.806;9.154;2022-09-09T13:54:04;25.00;90.80
10848;DHT22;5477;48.806;9.154;2022-09-09T13:56:33;24.60;90.80
10848;DHT22;5477;48.806;9.154;2022-09-09T13:59:02;24.20;90.60
10848;DHT22;5477;48.806;9.154;2022-09-09T14:01:32;24.30;90.80
10848;DHT22;5477;48.806;9.154;2022-09-09T14:04:01;24.60;90.60
10848;DHT22;5477;48.806;9.154;2022-09-09T14:06:29;24.50;89.50
10848;DHT22;5477;48.806;9.154;2022-09-09T14:08:58;24.40;89.30
10848;DHT22;5477;48.806;9.154;2022-09-09T14:11:26;24.10;88.60
10848;DHT22;5477;48.806;9.154;2022-09-09T14:13:54;24.50;88.10
10848;DHT22;5477;48.806;9.154;2022-09-09T14:16:22;25.60;86.80
10848;DHT22;5477;48.806;9.154;2022-09-09T14:18:51;26.60;80.60
10848;DHT22;5477;48.806;9.154;2022-09-09T14:21:19;26.80;78.40
10848;DHT22;5477;48.806;9.154;2022-09-09T14:23:48;26.60;77.80
10848;DHT22;5477;48.806;9.154;2022-09-09T14:26:16;26.70;76.30
10848;DHT22;5477;48.806;9.154;2022-09-09T14:28:45;27.10;75.40
10848;DHT22;5477;48.806;9.154;2022-09-09T14:31:22;27.70;73.30
10848;DHT22;5477;48.806;9.154;2022-09-09T14:33:52;27.50;71.00
10848;DHT22;5477;48.806;9.154;2022-09-09T14:36:20;26.50;70.70
10848;DHT22;5477;48.806;9.154;2022-09-09T14:38:49;26.10;71.90
10848;DHT22;5477;48.806;9.154;2022-09-09T14:41:19;25.60;73.40
10848;DHT22;5477;48.806;9.154;2022-09-09T14:43:49;25.20;75.20
10848;DHT22;5477;48.806;9.154;2022-09-09T14:46:19;24.60;77.80
10848;DHT22;5477;48.806;9.154;2022-09-09T14:48:48;24.20;78.20
10848;DHT22;5477;48.806;9.154;2022-09-09T14:51:19;24.00;79.50
10848;DHT22;5477;48.806;9.154;2022-09-09T14:53:51;24.90;78.90
10848;DHT22;5477;48.806;9.154;2022-09-09T14:56:21;26.20;75.20
10848;DHT22;5477;48.806;9.154;2022-09-09T14:58:52;26.50;73.50
10848;DHT22;5477;48.806;9.154;2022-09-09T15:01:21;26.30;72.90
10848;DHT22;5477;48.806;9.154;2022-09-09T15:03:51;25.80;74.40
10848;DHT22;5477;48.806;9.154;2022-09-09T15:06:22;25.50;75.60
10848;DHT22;5477;48.806;9.154;2022-09-09T15:08:52;25.40;75.40
10848;DHT22;5477;48.806;9.154;2022-09-09T15:11:21;24.90;76.20
10848;DHT22;5477;48.806;9.154;2022-09-09T15:13:52;24.40;77.90
10848;DHT22;5477;48.806;9.154;2022-09-09T15:16:23;24.00;79.10
10848;DHT22;5477;48.806;9.154;2022-09-09T15:18:52;23.70;80.70
10848;DHT22;5477;48.806;9.154;2022-09-09T15:21:23;23.40;81.70
10848;DHT22;5477;48.806;9.154;2022-09-09T15:23:51;23.40;82.50
10848;DHT22;5477;48.806;9.154;2022-09-09T15:26:20;23.40;83.00
10848;DHT22;5477;48.806;9.154;2022-09-09T15:28:48;23.10;83.90
10848;DHT22;5477;48.806;9.154;2022-09-09T15:31:18;22.90;83.50
10848;DHT22;5477;48.806;9.154;2022-09-09T15:33:47;22.70;84.60
10848;DHT22;5477;48.806;9.154;2022-09-09T15:36:17;22.70;85.10
10848;DHT22;5477;48.806;9.154;2022-09-09T15:38:47;22.70;85.10
10848;DHT22;5477;48.806;9.154;2022-09-09T15:41:16;22.90;84.90
10848;DHT22;5477;48.806;9.154;2022-09-09T15:43:45;22.80;85.30
10848;DHT22;5477;48.806;9.154;2022-09-09T15:46:26;22.70;85.80
10848;DHT22;5477;48.806;9.154;2022-09-09T15:48:55;22.40;86.70
10848;DHT22;5477;48.806;9.154;2022-09-09T15:51:25;22.40;87.80
10848;DHT22;5477;48.806;9.154;2022-09-09T15:54:12;22.20;88.50
10848;DHT22;5477;48.806;9.154;2022-09-09T15:56:41;22.00;89.20
10848;DHT22;5477;48.806;9.154;2022-09-09T15:59:09;21.90;89.20
10848;DHT22;5477;48.806;9.154;2022-09-09T16:01:38;22.00;90.00
10848;DHT22;5477;48.806;9.154;2022-09-09T16:04:07;21.80;90.10
10848;DHT22;5477;48.806;9.154;2022-09-09T16:06:35;21.80;90.40
10848;DHT22;5477;48.806;9.154;2022-09-09T16:09:05;21.70;90.70
10848;DHT22;5477;48.806;9.154;2022-09-09T16:11:36;21.60;90.90
10848;DHT22;5477;48.806;9.154;2022-09-09T16:14:04;21.60;91.00
10848;DHT22;5477;48.806;9.154;2022-09-09T16:16:33;21.60;91.10
10848;DHT22;5477;48.806;9.154;2022-09-09T16:19:04;21.60;91.00
10848;DHT22;5477;48.806;9.154;2022-09-09T16:21:34;21.50;91.30
10848;DHT22;5477;48.806;9.154;2022-09-09T16:24:04;21.50;91.60
10848;DHT22;5477;48.806;9.154;2022-09-09T16:26:35;21.40;91.70